Time;durP1;ratioP1;P1;durP2;ratioP2;P2;SDS_P1;SDS_P2;PMS_P1;PMS_P2;Temp;Humidity;BMP_temperature;BMP_pressure;BME280_temperature;BME280_humidity;BME280_pressure;Samples;Min_cycle;Max_cycle;Signal;HPM_P1;HPM_P2
2021/01/15 00:02:20;;;;;;;11.35;7.63;;;;;;;;;;5085285;28;20086;-67
2021/01/15 00:04:47;;;;;;;13.65;7.97;;;;;;;;;;5086390;28;20492;-67
2021/01/15 00:07:13;;;;;;;13.90;8.07;;;;;;;;;;5088949;28;20042;-67
2021/01/15 00:09:39;;;;;;;12.05;7.68;;;;;;;;;;5081172;28;20058;-67
2021/01/15 00:12:06;;;;;;;12.70;8.07;;;;;;;;;;5085708;28;20044;-67
2021/01/15 00:14:32;;;;;;;13.30;8.15;;;;;;;;;;5084209;28;20149;-67
2021/01/15 00:16:59;;;;;;;15.27;8.65;;;;;;;;;;5084530;28;20138;-67
2021/01/15 00:19:25;;;;;;;11.68;8.00;;;;;;;;;;5085067;28;20128;-67
2021/01/15 00:21:52;;;;;;;14.05;8.48;;;;;;;;;;5087942;28;20078;-67
2021/01/15 00:24:20;;;;;;;12.55;8.07;;;;;;;;;;5080583;28;20373;-67
2021/01/15 00:26:47;;;;;;;13.80;9.15;;;;;;;;;;5081725;28;20028;-67
2021/01/15 00:29:15;;;;;;;13.13;8.32;;;;;;;;;;5087832;28;20131;-67
2021/01/15 00:31:42;;;;;;;11.43;7.63;;;;;;;;;;5089592;28;20561;-67
2021/01/15 00:34:10;;;;;;;12.23;7.57;;;;;;;;;;5079878;28;20124;-67
2021/01/15 00:36:37;;;;;;;11.13;7.55;;;;;;;;;;5083141;28;20197;-67
2021/01/15 00:39:05;;;;;;;14.25;8.40;;;;;;;;;;5084086;28;20141;-67
2021/01/15 00:41:36;;;;;;;15.38;9.30;;;;;;;;;;5088015;28;20044;-67
2021/01/15 00:44:03;;;;;;;13.80;8.85;;;;;;;;;;5084328;28;20123;-67
2021/01/15 00:46:33;;;;;;;16.90;8.35;;;;;;;;;;5080027;28;20499;-67
2021/01/15 00:49:00;;;;;;;9.93;6.03;;;;;;;;;;5074510;28;20443;-67
2021/01/15 00:51:26;;;;;;;15.82;7.03;;;;;;;;;;5057286;28;20414;-67
2021/01/15 00:53:52;;;;;;;11.07;6.70;;;;;;;;;;5065308;28;20048;-67
2021/01/15 00:56:19;;;;;;;12.13;7.20;;;;;;;;;;5077275;28;20494;-67
2021/01/15 00:58:47;;;;;;;10.55;6.80;;;;;;;;;;5087160;28;20103;-67
2021/01/15 01:01:14;;;;;;;11.02;7.32;;;;;;;;;;5070394;28;20036;-67
2021/01/15 01:03:41;;;;;;;9.90;6.00;;;;;;;;;;5078099;28;20136;-67
2021/01/15 01:06:14;;;;;;;10.45;6.47;;;;;;;;;;5085697;28;20051;-67
2021/01/15 01:08:41;;;;;;;10.70;5.93;;;;;;;;;;5087347;28;20067;-67
2021/01/15 01:11:14;;;;;;;11.38;7.15;;;;;;;;;;5085166;28;20066;-67
2021/01/15 01:13:40;;;;;;;11.30;7.33;;;;;;;;;;5081312;28;20139;-67
2021/01/15 01:16:07;;;;;;;13.80;7.50;;;;;;;;;;5079345;28;20810;-67
2021/01/15 01:18:34;;;;;;;12.13;7.22;;;;;;;;;;5086324;28;20760;-67
2021/01/15 01:21:01;;;;;;;11.35;7.38;;;;;;;;;;5090011;28;20052;-67
2021/01/15 01:23:27;;;;;;;10.75;6.57;;;;;;;;;;5084075;28;20403;-67
2021/01/15 01:25:54;;;;;;;12.55;7.63;;;;;;;;;;5084645;28;20343;-67
2021/01/15 01:28:20;;;;;;;12.30;7.82;;;;;;;;;;5086939;28;20120;-67
2021/01/15 01:30:46;;;;;;;15.00;9.43;;;;;;;;;;5090189;28;20074;-67
2021/01/15 01:33:13;;;;;;;15.85;9.65;;;;;;;;;;5091002;28;20040;-67
2021/01/15 01:35:39;;;;;;;15.40;8.95;;;;;;;;;;5087473;28;20043;-67
2021/01/15 01:38:05;;;;;;;14.25;8.80;;;;;;;;;;5086470;28;20040;-67
2021/01/15 01:40:32;;;;;;;16.52;8.52;;;;;;;;;;5090081;28;20040;-67
2021/01/15 01:42:58;;;;;;;15.02;9.55;;;;;;;;;;5086935;28;20111;-67
2021/01/15 01:45:25;;;;;;;15.77;9.05;;;;;;;;;;5081189;28;20036;-67
2021/01/15 01:47:53;;;;;;;15.98;9.63;;;;;;;;;;5086197;28;20150;-67
2021/01/15 01:50:19;;;;;;;12.77;8.63;;;;;;;;;;5094645;28;20371;-67
2021/01/15 01:52:45;;;;;;;15.13;9.95;;;;;;;;;;5085394;28;20040;-67
2021/01/15 01:55:12;;;;;;;14.32;8.65;;;;;;;;;;5088382;28;20052;-67
2021/01/15 01:57:39;;;;;;;13.35;8.77;;;;;;;;;;5086556;28;20052;-67
2021/01/15 02:00:05;;;;;;;13.10;9.02;;;;;;;;;;5093660;28;20055;-67
2021/01/15 02:02:32;;;;;;;14.25;10.25;;;;;;;;;;5084402;28;20128;-67
2021/01/15 02:04:58;;;;;;;13.85;9.25;;;;;;;;;;5089419;28;20055;-67
2021/01/15 02:07:24;;;;;;;14.18;8.60;;;;;;;;;;5088388;28;20045;-67
2021/01/15 02:09:57;;;;;;;12.50;8.43;;;;;;;;;;5089060;28;20067;-67
2021/01/15 02:12:30;;;;;;;14.13;8.35;;;;;;;;;;5088169;28;20131;-67
2021/01/15 02:14:57;;;;;;;14.25;8.80;;;;;;;;;;5089945;28;20408;-67
2021/01/15 02:17:26;;;;;;;12.95;8.32;;;;;;;;;;5086127;28;20040;-67
2021/01/15 02:20:02;;;;;;;13.02;8.75;;;;;;;;;;5087512;28;20071;-67
2021/01/15 02:22:28;;;;;;;14.00;9.43;;;;;;;;;;5088546;28;20043;-67
2021/01/15 02:25:04;;;;;;;15.40;8.88;;;;;;;;;;5085705;28;20043;-67
2021/01/15 02:27:48;;;;;;;14.27;9.35;;;;;;;;;;5087999;28;20432;-67
2021/01/15 02:30:23;;;;;;;18.33;9.38;;;;;;;;;;5090809;28;20349;-67
2021/01/15 02:32:53;;;;;;;17.80;9.98;;;;;;;;;;5084802;28;20122;-67
2021/01/15 02:35:24;;;;;;;15.35;8.48;;;;;;;;;;5087097;28;20044;-67
2021/01/15 02:38:04;;;;;;;13.05;9.40;;;;;;;;;;5083346;28;20048;-67
2021/01/15 02:40:38;;;;;;;15.50;9.38;;;;;;;;;;5084051;28;20098;-66
2021/01/15 02:43:05;;;;;;;13.85;9.48;;;;;;;;;;5084449;28;20051;-67
2021/01/15 02:45:32;;;;;;;15.18;9.13;;;;;;;;;;5084908;28;20074;-67
2021/01/15 02:48:04;;;;;;;15.52;9.32;;;;;;;;;;5083277;28;20120;-67
2021/01/15 02:50:30;;;;;;;13.70;9.05;;;;;;;;;;5074378;28;20079;-67
2021/01/15 02:52:57;;;;;;;16.30;9.90;;;;;;;;;;5087542;27;20554;-67
2021/01/15 02:55:24;;;;;;;16.27;10.02;;;;;;;;;;5064804;28;20059;-67
2021/01/15 02:57:51;;;;;;;15.80;9.95;;;;;;;;;;5070952;28;20120;-67
2021/01/15 03:00:19;;;;;;;15.15;9.93;;;;;;;;;;5085100;28;20040;-67
2021/01/15 03:02:45;;;;;;;13.98;9.43;;;;;;;;;;5085129;28;20089;-67
2021/01/15 03:05:20;;;;;;;14.10;9.38;;;;;;;;;;5085112;28;20561;-67
2021/01/15 03:07:46;;;;;;;15.52;10.00;;;;;;;;;;5083526;28;20785;-67
2021/01/15 03:10:13;;;;;;;15.20;10.18;;;;;;;;;;5087251;28;20396;-67
2021/01/15 03:12:42;;;;;;;17.23;10.77;;;;;;;;;;5087036;27;20060;-67
2021/01/15 03:15:09;;;;;;;17.98;9.95;;;;;;;;;;5083727;28;20036;-67
2021/01/15 03:17:38;;;;;;;15.52;9.75;;;;;;;;;;5088678;28;20123;-67
2021/01/15 03:20:05;;;;;;;15.45;10.20;;;;;;;;;;5084723;28;20073;-67
2021/01/15 03:22:33;;;;;;;14.13;10.07;;;;;;;;;;5085926;28;20098;-67
2021/01/15 03:25:00;;;;;;;21.15;9.98;;;;;;;;;;5086590;28;20044;-67
2021/01/15 03:27:38;;;;;;;17.65;10.38;;;;;;;;;;5086017;28;20051;-67
2021/01/15 03:30:05;;;;;;;14.63;9.23;;;;;;;;;;5082910;28;20078;-67
2021/01/15 03:32:31;;;;;;;14.82;9.43;;;;;;;;;;5088027;28;20071;-67
2021/01/15 03:34:57;;;;;;;23.15;9.35;;;;;;;;;;5088062;28;20036;-67
2021/01/15 03:37:24;;;;;;;15.57;9.13;;;;;;;;;;5084862;28;20048;-67
2021/01/15 03:39:50;;;;;;;14.13;9.07;;;;;;;;;;5087312;28;20416;-67
2021/01/15 03:42:16;;;;;;;13.95;8.98;;;;;;;;;;5086130;28;20062;-67
2021/01/15 03:44:42;;;;;;;15.48;9.32;;;;;;;;;;5088686;28;20357;-67
2021/01/15 03:47:10;;;;;;;15.18;9.60;;;;;;;;;;5086212;28;20046;-67
2021/01/15 03:49:36;;;;;;;15.73;10.27;;;;;;;;;;5082585;28;20129;-66
2021/01/15 03:52:02;;;;;;;17.42;10.35;;;;;;;;;;5078192;28;20051;-67
2021/01/15 03:54:28;;;;;;;19.27;10.32;;;;;;;;;;5094493;28;20115;-67
2021/01/15 03:56:55;;;;;;;14.35;10.18;;;;;;;;;;5085567;28;20093;-67
2021/01/15 03:59:21;;;;;;;19.48;10.07;;;;;;;;;;5089066;28;20113;-67
2021/01/15 04:01:47;;;;;;;14.70;9.63;;;;;;;;;;5089791;28;20060;-67
2021/01/15 04:04:14;;;;;;;15.32;9.93;;;;;;;;;;5082333;28;20154;-67
2021/01/15 04:06:40;;;;;;;14.18;9.73;;;;;;;;;;5081216;28;20113;-67
2021/01/15 04:09:06;;;;;;;15.68;10.13;;;;;;;;;;5083037;28;20127;-66
2021/01/15 04:11:32;;;;;;;15.20;9.82;;;;;;;;;;5086920;28;20720;-68
2021/01/15 04:13:59;;;;;;;13.25;9.32;;;;;;;;;;5085835;28;21570;-67
2021/01/15 04:16:25;;;;;;;16.45;10.48;;;;;;;;;;5088225;28;20122;-67
2021/01/15 04:18:51;;;;;;;16.67;10.27;;;;;;;;;;5088416;28;20036;-67
2021/01/15 04:21:17;;;;;;;14.98;9.85;;;;;;;;;;5086885;28;20070;-67
2021/01/15 04:23:44;;;;;;;13.88;9.38;;;;;;;;;;5088846;28;20040;-67
2021/01/15 04:26:17;;;;;;;14.10;9.48;;;;;;;;;;5087047;28;20194;-67
2021/01/15 04:28:44;;;;;;;14.47;10.10;;;;;;;;;;5085432;28;20090;-66
2021/01/15 04:31:10;;;;;;;15.40;9.95;;;;;;;;;;5084273;28;20042;-67
2021/01/15 04:33:37;;;;;;;16.63;10.27;;;;;;;;;;5091106;28;20118;-67
2021/01/15 04:36:03;;;;;;;16.98;9.95;;;;;;;;;;5091600;28;20036;-67
2021/01/15 04:38:29;;;;;;;14.82;9.70;;;;;;;;;;5087666;28;20050;-67
2021/01/15 04:40:57;;;;;;;15.13;9.88;;;;;;;;;;5090355;28;20143;-67
2021/01/15 04:43:28;;;;;;;17.40;10.63;;;;;;;;;;5087833;28;20031;-67
2021/01/15 04:45:55;;;;;;;17.10;10.70;;;;;;;;;;5086779;28;20037;-67
2021/01/15 04:48:22;;;;;;;15.27;9.85;;;;;;;;;;5087491;28;20457;-67
2021/01/15 04:50:49;;;;;;;13.98;9.80;;;;;;;;;;5073699;28;20052;-67
2021/01/15 04:53:19;;;;;;;16.17;10.82;;;;;;;;;;5067377;28;20554;-67
2021/01/15 04:55:45;;;;;;;15.18;9.57;;;;;;;;;;5062166;28;20055;-67
2021/01/15 04:58:13;;;;;;;15.75;10.05;;;;;;;;;;5072487;28;20128;-67
2021/01/15 05:00:41;;;;;;;15.23;10.40;;;;;;;;;;5089384;28;20993;-67
2021/01/15 05:03:10;;;;;;;16.55;9.57;;;;;;;;;;5086401;28;20041;-67
2021/01/15 05:05:43;;;;;;;14.57;9.70;;;;;;;;;;5088702;28;20423;-67
2021/01/15 05:08:11;;;;;;;14.75;10.43;;;;;;;;;;5090376;28;20111;-67
2021/01/15 05:10:38;;;;;;;18.60;11.00;;;;;;;;;;5096396;28;20056;-67
2021/01/15 05:13:06;;;;;;;16.65;10.15;;;;;;;;;;5089132;28;20054;-67
2021/01/15 05:15:33;;;;;;;14.88;10.02;;;;;;;;;;5088016;28;20082;-67
2021/01/15 05:18:01;;;;;;;16.75;10.82;;;;;;;;;;5088648;28;20040;-67
2021/01/15 05:20:29;;;;;;;14.95;10.15;;;;;;;;;;5094386;28;20099;-67
2021/01/15 05:22:58;;;;;;;14.00;9.18;;;;;;;;;;5083933;28;20089;-67
2021/01/15 05:25:24;;;;;;;17.80;11.13;;;;;;;;;;5085968;28;20036;-67
2021/01/15 05:27:50;;;;;;;15.68;9.48;;;;;;;;;;5085438;28;20121;-67
2021/01/15 05:30:18;;;;;;;18.02;10.20;;;;;;;;;;5086479;28;20044;-67
2021/01/15 05:32:45;;;;;;;14.85;9.90;;;;;;;;;;5086900;28;20047;-67
2021/01/15 05:35:12;;;;;;;17.42;11.05;;;;;;;;;;5083043;28;20143;-67
2021/01/15 05:37:38;;;;;;;15.05;10.13;;;;;;;;;;5089386;28;20047;-67
2021/01/15 05:40:05;;;;;;;14.45;9.48;;;;;;;;;;5084643;28;20048;-67
2021/01/15 05:42:45;;;;;;;15.70;10.10;;;;;;;;;;5089971;28;20032;-67
2021/01/15 05:45:13;;;;;;;14.45;9.43;;;;;;;;;;5084581;28;20066;-67
2021/01/15 05:47:42;;;;;;;15.68;9.93;;;;;;;;;;5079978;28;20047;-67
2021/01/15 05:50:09;;;;;;;14.23;9.32;;;;;;;;;;5086577;28;20122;-67
2021/01/15 05:52:36;;;;;;;18.85;10.25;;;;;;;;;;5087114;28;20036;-67
2021/01/15 05:55:12;;;;;;;18.10;11.20;;;;;;;;;;5086254;28;20131;-67
2021/01/15 05:57:39;;;;;;;14.27;10.10;;;;;;;;;;5088523;28;20127;-67
2021/01/15 06:00:06;;;;;;;16.48;9.65;;;;;;;;;;5086043;28;20502;-66
2021/01/15 06:02:32;;;;;;;16.40;10.32;;;;;;;;;;5084443;28;20402;-70
2021/01/15 06:04:58;;;;;;;15.60;10.13;;;;;;;;;;5086523;28;20510;-69
2021/01/15 06:07:26;;;;;;;15.98;9.75;;;;;;;;;;5088044;28;20110;-69
2021/01/15 06:10:00;;;;;;;15.35;9.55;;;;;;;;;;5092454;28;20034;-69
2021/01/15 06:12:26;;;;;;;;;;;;;;;;;;5087804;28;20487;-69
2021/01/15 06:14:57;;;;;;;16.63;10.80;;;;;;;;;;5087462;28;19928;-69
2021/01/15 06:17:25;;;;;;;15.55;10.40;;;;;;;;;;5092265;28;20475;-67
2021/01/15 06:19:56;;;;;;;17.25;10.05;;;;;;;;;;5092680;28;20164;-67
2021/01/15 06:22:29;;;;;;;17.23;10.75;;;;;;;;;;5091974;28;20044;-67
2021/01/15 06:25:06;;;;;;;17.13;10.48;;;;;;;;;;5096951;28;20046;-67
2021/01/15 06:27:39;;;;;;;15.52;10.80;;;;;;;;;;5092653;28;20044;-67
2021/01/15 06:30:13;;;;;;;15.38;10.70;;;;;;;;;;5086243;28;20055;-67
2021/01/15 06:32:39;;;;;;;14.45;10.43;;;;;;;;;;5094644;28;20036;-67
2021/01/15 06:35:06;;;;;;;18.70;11.10;;;;;;;;;;5089264;28;20506;-67
2021/01/15 06:37:35;;;;;;;15.30;10.63;;;;;;;;;;5092402;28;20053;-67
2021/01/15 06:40:02;;;;;;;19.08;11.35;;;;;;;;;;5091658;28;20044;-67
2021/01/15 06:42:30;;;;;;;18.73;10.80;;;;;;;;;;5089892;28;20487;-67
2021/01/15 06:44:57;;;;;;;15.38;9.98;;;;;;;;;;5090301;28;20040;-66
2021/01/15 06:47:27;;;;;;;15.65;10.68;;;;;;;;;;5092350;28;20135;-67
2021/01/15 06:49:56;;;;;;;16.60;10.23;;;;;;;;;;5092601;28;20041;-67
2021/01/15 06:52:26;;;;;;;20.33;10.30;;;;;;;;;;5091611;28;20463;-67
2021/01/15 06:54:55;;;;;;;18.05;11.02;;;;;;;;;;5089467;28;20048;-66
2021/01/15 06:57:26;;;;;;;15.70;10.38;;;;;;;;;;5086808;28;20743;-67
2021/01/15 06:59:52;;;;;;;14.18;10.43;;;;;;;;;;5089940;28;20036;-67
2021/01/15 07:02:36;;;;;;;20.50;11.43;;;;;;;;;;5091519;28;20079;-66
2021/01/15 07:05:04;;;;;;;19.27;11.32;;;;;;;;;;5095097;28;20423;-66
2021/01/15 07:07:31;;;;;;;17.35;11.38;;;;;;;;;;5092377;28;20173;-66
2021/01/15 07:10:00;;;;;;;17.80;11.60;;;;;;;;;;5090100;28;20048;-67
2021/01/15 07:12:26;;;;;;;20.55;12.15;;;;;;;;;;5089678;28;20435;-67
2021/01/15 07:14:56;;;;;;;18.65;10.98;;;;;;;;;;5087011;28;20506;-67
2021/01/15 07:17:31;;;;;;;19.70;11.38;;;;;;;;;;5086819;28;20044;-67
2021/01/15 07:20:03;;;;;;;17.70;10.77;;;;;;;;;;5098456;28;20036;-68
2021/01/15 07:22:34;;;;;;;16.95;10.93;;;;;;;;;;5092369;28;20165;-68
2021/01/15 07:25:03;;;;;;;17.67;10.95;;;;;;;;;;5089156;28;20036;-67
2021/01/15 07:27:30;;;;;;;17.42;11.35;;;;;;;;;;5089764;28;20084;-67
2021/01/15 07:29:56;;;;;;;20.67;12.30;;;;;;;;;;5091677;28;20106;-67
2021/01/15 07:32:25;;;;;;;18.38;11.50;;;;;;;;;;5090924;28;20036;-67
2021/01/15 07:34:54;;;;;;;16.98;11.13;;;;;;;;;;5094760;28;20040;-67
2021/01/15 07:37:22;;;;;;;16.02;10.70;;;;;;;;;;5090392;28;20127;-67
2021/01/15 07:40:04;;;;;;;17.10;11.13;;;;;;;;;;5094899;28;20452;-67
2021/01/15 07:42:49;;;;;;;18.15;11.20;;;;;;;;;;5091616;28;20114;-68
2021/01/15 07:45:25;;;;;;;15.60;10.52;;;;;;;;;;5092572;28;20043;-67
2021/01/15 07:47:51;;;;;;;19.70;11.07;;;;;;;;;;5098892;28;20036;-67
2021/01/15 07:50:28;;;;;;;15.77;10.95;;;;;;;;;;5091522;28;20399;-67
2021/01/15 07:53:13;;;;;;;17.08;10.77;;;;;;;;;;5089585;28;20545;-68
2021/01/15 07:55:44;;;;;;;16.35;10.52;;;;;;;;;;5091492;28;20380;-67
2021/01/15 07:58:10;;;;;;;15.52;10.18;;;;;;;;;;5096515;28;20229;-67
2021/01/15 08:00:37;;;;;;;15.38;9.27;;;;;;;;;;5103195;28;20059;-67
2021/01/15 08:03:04;;;;;;;17.50;10.07;;;;;;;;;;5099750;28;20462;-66
2021/01/15 08:05:30;;;;;;;14.98;10.68;;;;;;;;;;5093644;28;20112;-67
2021/01/15 08:08:05;;;;;;;17.27;10.40;;;;;;;;;;5093175;28;20707;-67
2021/01/15 08:10:31;;;;;;;14.88;10.00;;;;;;;;;;5090946;28;20047;-68
2021/01/15 08:12:58;;;;;;;17.17;10.30;;;;;;;;;;5100392;28;20075;-68
2021/01/15 08:15:31;;;;;;;15.75;10.85;;;;;;;;;;5086656;28;20040;-67
2021/01/15 08:18:01;;;;;;;17.38;10.55;;;;;;;;;;5090129;28;20112;-68
2021/01/15 08:20:28;;;;;;;16.88;10.18;;;;;;;;;;5089404;28;20125;-68
2021/01/15 08:22:55;;;;;;;17.95;9.40;;;;;;;;;;5100874;28;20160;-67
2021/01/15 08:25:26;;;;;;;17.08;9.65;;;;;;;;;;5091667;28;20047;-67
2021/01/15 08:27:52;;;;;;;17.33;10.20;;;;;;;;;;5089237;28;20537;-67
2021/01/15 08:30:19;;;;;;;16.45;10.13;;;;;;;;;;5102092;28;20036;-67
2021/01/15 08:32:45;;;;;;;15.00;10.25;;;;;;;;;;5090900;28;20061;-67
2021/01/15 08:35:14;;;;;;;17.15;9.77;;;;;;;;;;5089756;28;20066;-67
2021/01/15 08:37:40;;;;;;;14.50;9.38;;;;;;;;;;5090530;28;20147;-70
2021/01/15 08:40:07;;;;;;;15.43;9.85;;;;;;;;;;5090496;28;20048;-72
2021/01/15 08:42:34;;;;;;;14.35;10.05;;;;;;;;;;5089167;28;20101;-70
2021/01/15 08:45:00;;;;;;;15.00;9.55;;;;;;;;;;5090763;28;20115;-70
2021/01/15 08:47:33;;;;;;;14.23;9.65;;;;;;;;;;5091925;28;20058;-67
2021/01/15 08:50:00;;;;;;;16.60;10.95;;;;;;;;;;5093000;28;20117;-67
2021/01/15 08:52:30;;;;;;;18.25;10.70;;;;;;;;;;5090715;28;20048;-68
2021/01/15 08:54:59;;;;;;;14.65;9.73;;;;;;;;;;5078054;28;20055;-67
2021/01/15 08:57:28;;;;;;;16.13;10.40;;;;;;;;;;5089676;28;20032;-67
2021/01/15 08:59:54;;;;;;;16.45;10.88;;;;;;;;;;5089596;28;20081;-67
2021/01/15 09:02:22;;;;;;;16.88;10.75;;;;;;;;;;5090811;28;20129;-67
2021/01/15 09:04:49;;;;;;;16.05;10.70;;;;;;;;;;5097197;28;20070;-67
2021/01/15 09:07:17;;;;;;;20.95;11.88;;;;;;;;;;5090462;28;20047;-67
2021/01/15 09:09:44;;;;;;;15.52;10.30;;;;;;;;;;5090919;28;20048;-67
2021/01/15 09:12:11;;;;;;;17.15;10.85;;;;;;;;;;5089998;28;20048;-66
2021/01/15 09:14:38;;;;;;;15.57;10.70;;;;;;;;;;5096946;28;20155;-67
2021/01/15 09:17:05;;;;;;;16.38;10.98;;;;;;;;;;5090186;28;20048;-66
2021/01/15 09:19:32;;;;;;;18.17;11.30;;;;;;;;;;5099499;28;20114;-66
2021/01/15 09:22:01;;;;;;;17.83;11.15;;;;;;;;;;5089940;28;20112;-66
2021/01/15 09:24:29;;;;;;;14.07;9.77;;;;;;;;;;5089802;28;20113;-67
2021/01/15 09:26:57;;;;;;;15.48;10.88;;;;;;;;;;5093646;28;20104;-67
2021/01/15 09:29:24;;;;;;;16.83;9.65;;;;;;;;;;5094715;28;20078;-68
2021/01/15 09:31:51;;;;;;;13.82;9.75;;;;;;;;;;5077308;28;20040;-72
2021/01/15 09:34:17;;;;;;;15.13;10.30;;;;;;;;;;5091870;28;20059;-71
2021/01/15 09:36:45;;;;;;;14.63;10.05;;;;;;;;;;5087323;28;20115;-66
2021/01/15 09:39:12;;;;;;;19.38;10.82;;;;;;;;;;5088347;28;20123;-67
2021/01/15 09:41:44;;;;;;;16.48;11.13;;;;;;;;;;5085193;28;20090;-66
2021/01/15 09:44:11;;;;;;;18.00;10.23;;;;;;;;;;5090960;28;20048;-67
2021/01/15 09:46:37;;;;;;;20.25;10.77;;;;;;;;;;5084335;28;20389;-67
2021/01/15 09:49:04;;;;;;;17.00;10.73;;;;;;;;;;5106011;28;20132;-67
2021/01/15 09:51:30;;;;;;;16.08;10.38;;;;;;;;;;5086062;28;20040;-67
2021/01/15 09:53:57;;;;;;;17.85;10.68;;;;;;;;;;5087733;28;20051;-67
2021/01/15 09:56:26;;;;;;;18.83;10.48;;;;;;;;;;5088313;28;20047;-67
2021/01/15 09:58:54;;;;;;;20.05;11.25;;;;;;;;;;5087052;28;20047;-66
2021/01/15 10:01:20;;;;;;;19.45;12.02;;;;;;;;;;5087192;28;20073;-67
2021/01/15 10:03:47;;;;;;;24.42;12.77;;;;;;;;;;5084972;28;20040;-66
2021/01/15 10:06:14;;;;;;;19.58;11.35;;;;;;;;;;5087912;28;20158;-66
2021/01/15 10:08:41;;;;;;;17.77;10.60;;;;;;;;;;5084759;28;20044;-67
2021/01/15 10:11:08;;;;;;;17.48;12.07;;;;;;;;;;5088852;28;20407;-67
2021/01/15 10:13:34;;;;;;;19.52;12.20;;;;;;;;;;5084398;28;20049;-67
2021/01/15 10:16:05;;;;;;;19.88;11.40;;;;;;;;;;5094770;28;20506;-67
2021/01/15 10:18:31;;;;;;;17.23;11.10;;;;;;;;;;5084473;28;20792;-67
2021/01/15 10:20:58;;;;;;;18.17;11.15;;;;;;;;;;5080338;28;20373;-68
2021/01/15 10:23:25;;;;;;;18.65;11.50;;;;;;;;;;5087660;28;20056;-69
2021/01/15 10:25:51;;;;;;;19.45;11.10;;;;;;;;;;5090049;28;20411;-68
2021/01/15 10:28:18;;;;;;;22.77;12.65;;;;;;;;;;5092194;28;20404;-68
2021/01/15 10:30:46;;;;;;;18.50;11.10;;;;;;;;;;5093067;28;20144;-68
2021/01/15 10:33:12;;;;;;;17.77;11.60;;;;;;;;;;5096074;28;20047;-68
2021/01/15 10:35:39;;;;;;;17.92;12.05;;;;;;;;;;5092353;28;20044;-68
2021/01/15 10:38:05;;;;;;;18.92;11.80;;;;;;;;;;5091966;28;20173;-71
2021/01/15 10:40:32;;;;;;;18.95;11.15;;;;;;;;;;5098956;28;20048;-68
2021/01/15 10:42:58;;;;;;;20.42;11.10;;;;;;;;;;5091036;28;20121;-69
2021/01/15 10:45:25;;;;;;;18.55;11.73;;;;;;;;;;5108104;28;20056;-68
2021/01/15 10:47:51;;;;;;;18.55;10.68;;;;;;;;;;5092511;28;20044;-69
2021/01/15 10:50:17;;;;;;;22.02;11.45;;;;;;;;;;5093059;28;20221;-69
2021/01/15 10:52:50;;;;;;;18.63;10.60;;;;;;;;;;5091128;28;20063;-69
2021/01/15 10:55:17;;;;;;;17.60;10.83;;;;;;;;;;5091636;28;20048;-69
2021/01/15 10:57:44;;;;;;;15.57;10.43;;;;;;;;;;5092896;28;20807;-69
2021/01/15 11:00:12;;;;;;;16.00;10.38;;;;;;;;;;5094008;28;20051;-70
2021/01/15 11:02:38;;;;;;;17.25;9.55;;;;;;;;;;5103081;28;20400;-69
2021/01/15 11:05:06;;;;;;;20.83;10.75;;;;;;;;;;5096849;28;20051;-69
2021/01/15 11:07:33;;;;;;;17.55;9.13;;;;;;;;;;5091963;28;20430;-70
2021/01/15 11:09:59;;;;;;;17.70;9.90;;;;;;;;;;5100706;28;20047;-69
2021/01/15 11:12:25;;;;;;;15.15;9.15;;;;;;;;;;5100455;28;20108;-70
2021/01/15 11:14:52;;;;;;;15.38;8.50;;;;;;;;;;5094651;28;20040;-70
2021/01/15 11:17:18;;;;;;;12.93;7.75;;;;;;;;;;5083538;28;20155;-69
2021/01/15 11:19:45;;;;;;;12.98;7.85;;;;;;;;;;5085769;28;20040;-69
2021/01/15 11:22:11;;;;;;;14.75;7.95;;;;;;;;;;5093398;28;20048;-70
2021/01/15 11:24:37;;;;;;;15.50;8.68;;;;;;;;;;5091018;28;20067;-70
2021/01/15 11:27:04;;;;;;;12.50;8.07;;;;;;;;;;5091716;28;20059;-70
2021/01/15 11:29:30;;;;;;;17.02;8.93;;;;;;;;;;5091734;28;20040;-70
2021/01/15 11:31:56;;;;;;;15.25;8.88;;;;;;;;;;5098384;28;20043;-80
2021/01/15 11:34:23;;;;;;;17.52;9.55;;;;;;;;;;5096860;28;20059;-75
2021/01/15 11:36:49;;;;;;;16.95;9.30;;;;;;;;;;5089670;28;20161;-74
2021/01/15 11:39:16;;;;;;;13.18;8.32;;;;;;;;;;5092498;28;20042;-70
2021/01/15 11:41:42;;;;;;;15.85;9.90;;;;;;;;;;5099445;28;20051;-68
2021/01/15 11:44:12;;;;;;;15.70;9.00;;;;;;;;;;5091151;28;20044;-70
2021/01/15 11:46:38;;;;;;;18.85;10.02;;;;;;;;;;5090626;28;20463;-70
2021/01/15 11:49:05;;;;;;;18.30;9.75;;;;;;;;;;5089905;28;20056;-70
2021/01/15 11:51:31;;;;;;;15.05;9.02;;;;;;;;;;5091360;28;20490;-69
2021/01/15 11:54:01;;;;;;;16.10;9.93;;;;;;;;;;5090933;28;20036;-69
2021/01/15 11:56:27;;;;;;;13.75;8.82;;;;;;;;;;5091632;28;20036;-70
2021/01/15 11:58:54;;;;;;;14.60;8.65;;;;;;;;;;5090420;28;20052;-69
2021/01/15 12:01:21;;;;;;;15.27;9.15;;;;;;;;;;5098066;28;20040;-69
2021/01/15 12:03:49;;;;;;;15.90;9.13;;;;;;;;;;5090936;28;20135;-69
2021/01/15 12:06:16;;;;;;;16.45;9.13;;;;;;;;;;5098277;28;20392;-69
2021/01/15 12:08:43;;;;;;;13.60;8.85;;;;;;;;;;5090688;28;20426;-69
2021/01/15 12:11:10;;;;;;;13.60;8.93;;;;;;;;;;5093966;28;20032;-69
2021/01/15 12:13:37;;;;;;;11.10;7.93;;;;;;;;;;5097629;28;20130;-70
2021/01/15 12:16:03;;;;;;;13.65;8.77;;;;;;;;;;5090246;28;20171;-69
2021/01/15 12:18:31;;;;;;;12.48;8.38;;;;;;;;;;5091176;28;20495;-69
2021/01/15 12:20:58;;;;;;;13.50;8.23;;;;;;;;;;5092261;28;20047;-69
2021/01/15 12:23:24;;;;;;;13.80;7.95;;;;;;;;;;5089616;28;20152;-69
2021/01/15 12:25:51;;;;;;;17.63;7.82;;;;;;;;;;5092670;28;20094;-69
2021/01/15 12:28:18;;;;;;;14.43;8.13;;;;;;;;;;5094632;28;20044;-70
2021/01/15 12:30:45;;;;;;;12.98;7.68;;;;;;;;;;5099473;28;20174;-69
2021/01/15 12:33:13;;;;;;;11.80;7.75;;;;;;;;;;5091919;28;20047;-69
2021/01/15 12:35:40;;;;;;;13.45;8.27;;;;;;;;;;5093634;28;20044;-70
2021/01/15 12:38:08;;;;;;;13.82;7.75;;;;;;;;;;5092699;28;20126;-70
2021/01/15 12:40:35;;;;;;;14.85;7.30;;;;;;;;;;5090071;28;20351;-70
2021/01/15 12:43:02;;;;;;;12.35;7.68;;;;;;;;;;5088850;28;20222;-70
2021/01/15 12:45:29;;;;;;;12.90;7.78;;;;;;;;;;5088374;28;20040;-69
2021/01/15 12:47:56;;;;;;;12.95;8.07;;;;;;;;;;5082464;28;20072;-71
2021/01/15 12:50:23;;;;;;;11.73;7.30;;;;;;;;;;5083686;28;20665;-71
2021/01/15 12:52:50;;;;;;;13.02;7.38;;;;;;;;;;5071498;28;20052;-71
2021/01/15 12:55:21;;;;;;;13.48;7.18;;;;;;;;;;5083444;28;20044;-72
2021/01/15 12:57:48;;;;;;;13.43;7.32;;;;;;;;;;5081339;28;20696;-69
2021/01/15 13:00:16;;;;;;;12.93;8.07;;;;;;;;;;5084382;28;20480;-69
2021/01/15 13:02:42;;;;;;;12.00;7.60;;;;;;;;;;5086107;28;20044;-69
2021/01/15 13:05:09;;;;;;;12.38;7.55;;;;;;;;;;5095684;28;20044;-68
2021/01/15 13:07:36;;;;;;;11.10;6.60;;;;;;;;;;5096815;28;20063;-69
2021/01/15 13:10:04;;;;;;;12.82;7.55;;;;;;;;;;5091485;28;20053;-68
2021/01/15 13:12:30;;;;;;;13.40;7.35;;;;;;;;;;5093118;27;20430;-69
2021/01/15 13:14:56;;;;;;;14.65;7.53;;;;;;;;;;5091291;28;20036;-70
2021/01/15 13:17:23;;;;;;;14.27;7.85;;;;;;;;;;5091275;28;20040;-69
2021/01/15 13:19:50;;;;;;;12.95;7.78;;;;;;;;;;5097533;28;20048;-69
2021/01/15 13:22:17;;;;;;;10.27;6.55;;;;;;;;;;5085642;28;20051;-69
2021/01/15 13:24:44;;;;;;;13.10;8.10;;;;;;;;;;5090884;28;20043;-69
2021/01/15 13:27:10;;;;;;;11.52;7.40;;;;;;;;;;5089545;28;20491;-69
2021/01/15 13:29:36;;;;;;;12.15;7.68;;;;;;;;;;5089113;28;20048;-68
2021/01/15 13:32:03;;;;;;;12.95;7.38;;;;;;;;;;5093885;28;20044;-69
2021/01/15 13:34:29;;;;;;;11.48;7.20;;;;;;;;;;5094422;28;20055;-68
2021/01/15 13:36:57;;;;;;;12.07;7.25;;;;;;;;;;5094179;28;20044;-68
2021/01/15 13:39:23;;;;;;;12.90;8.02;;;;;;;;;;5093779;28;20055;-68
2021/01/15 13:41:50;;;;;;;13.65;7.82;;;;;;;;;;5094091;28;20044;-68
2021/01/15 13:44:16;;;;;;;13.40;8.05;;;;;;;;;;5093166;28;20495;-70
2021/01/15 13:46:42;;;;;;;14.25;7.93;;;;;;;;;;5094121;28;20138;-69
2021/01/15 13:49:09;;;;;;;12.95;8.15;;;;;;;;;;5093880;28;20058;-69
2021/01/15 13:51:36;;;;;;;14.27;7.60;;;;;;;;;;5093456;28;20123;-69
2021/01/15 13:54:02;;;;;;;12.55;7.50;;;;;;;;;;5093976;28;20036;-68
2021/01/15 13:56:28;;;;;;;13.45;8.43;;;;;;;;;;5093960;28;20044;-69
2021/01/15 13:58:55;;;;;;;13.30;7.20;;;;;;;;;;5092960;28;20040;-69
2021/01/15 14:01:21;;;;;;;12.20;7.90;;;;;;;;;;5094036;28;20044;-69
2021/01/15 14:03:48;;;;;;;13.50;8.00;;;;;;;;;;5093609;28;20047;-69
2021/01/15 14:06:14;;;;;;;14.63;8.07;;;;;;;;;;5088178;28;20061;-69
2021/01/15 14:08:41;;;;;;;14.13;7.53;;;;;;;;;;5088176;28;20040;-69
2021/01/15 14:11:07;;;;;;;15.25;8.65;;;;;;;;;;5093216;28;20052;-69
2021/01/15 14:13:34;;;;;;;13.75;8.23;;;;;;;;;;5107380;28;20047;-69
2021/01/15 14:16:01;;;;;;;13.77;7.93;;;;;;;;;;5093330;28;20040;-69
2021/01/15 14:18:27;;;;;;;16.30;7.93;;;;;;;;;;5109113;28;20044;-69
2021/01/15 14:20:53;;;;;;;16.73;8.23;;;;;;;;;;5092557;28;20071;-69
2021/01/15 14:23:20;;;;;;;12.88;7.25;;;;;;;;;;5093553;28;20044;-69
2021/01/15 14:25:46;;;;;;;13.75;8.07;;;;;;;;;;5093096;28;20446;-69
2021/01/15 14:28:13;;;;;;;15.50;7.88;;;;;;;;;;5092609;28;20040;-69
2021/01/15 14:30:39;;;;;;;17.80;8.27;;;;;;;;;;5093105;28;20082;-69